Time;durP1;ratioP1;P1;durP2;ratioP2;P2;SDS_P1;SDS_P2;PMS_P1;PMS_P2;Temp;Humidity;BMP_temperature;BMP_pressure;BME280_temperature;BME280_humidity;BME280_pressure;Samples;Min_cycle;Max_cycle;Signal;HPM_P1;HPM_P2
2020/12/30 00:00:40;;;;;;;4.03;3.57;;;18.40;52.70;;;;;;5048053;28;20229;-56
2020/12/30 00:03:06;;;;;;;4.80;3.97;;;18.30;52.70;;;;;;5041437;28;20209;-57
2020/12/30 00:05:33;;;;;;;3.67;3.37;;;18.30;52.90;;;;;;5047547;28;20201;-57
2020/12/30 00:08:05;;;;;;;4.83;3.90;;;18.20;53.00;;;;;;5040733;28;20214;-55
2020/12/30 00:10:32;;;;;;;4.23;3.70;;;18.20;53.00;;;;;;5042784;28;20206;-56
2020/12/30 00:12:58;;;;;;;4.87;3.67;;;18.20;53.00;;;;;;5047373;28;20218;-57
2020/12/30 00:15:25;;;;;;;4.73;3.60;;;18.10;53.00;;;;;;5035276;28;20741;-57
2020/12/30 00:17:51;;;;;;;4.73;3.47;;;18.10;53.10;;;;;;5047456;28;20217;-56
2020/12/30 00:20:18;;;;;;;4.40;3.07;;;18.10;53.20;;;;;;5040402;28;20205;-57
2020/12/30 00:22:45;;;;;;;4.87;3.53;;;18.00;53.20;;;;;;5046588;28;20690;-58
2020/12/30 00:25:12;;;;;;;4.10;3.70;;;18.00;53.20;;;;;;5039093;28;20210;-57
2020/12/30 00:27:40;;;;;;;4.57;3.83;;;18.00;53.30;;;;;;5047022;28;20226;-57
2020/12/30 00:30:09;;;;;;;4.10;3.70;;;17.90;53.40;;;;;;5039756;28;20210;-56
2020/12/30 00:32:35;;;;;;;4.43;3.50;;;17.90;53.40;;;;;;5045579;28;20252;-57
2020/12/30 00:35:03;;;;;;;6.00;3.67;;;17.90;53.40;;;;;;5040146;28;20202;-57
2020/12/30 00:37:29;;;;;;;4.93;3.63;;;17.90;53.50;;;;;;5046403;28;20197;-57
2020/12/30 00:39:55;;;;;;;5.13;3.67;;;17.80;53.60;;;;;;5039583;28;20202;-57
2020/12/30 00:42:21;;;;;;;3.93;3.53;;;17.80;53.60;;;;;;5048668;28;20202;-56
2020/12/30 00:44:47;;;;;;;3.60;3.30;;;17.70;53.60;;;;;;5040525;28;20198;-56
2020/12/30 00:47:15;;;;;;;3.70;3.40;;;17.70;53.70;;;;;;5047445;28;20202;-54
2020/12/30 00:49:41;;;;;;;4.23;3.50;;;17.70;53.80;;;;;;5043799;28;20218;-56
2020/12/30 00:52:09;;;;;;;3.93;3.50;;;17.70;54.50;;;;;;5043248;28;20686;-56
2020/12/30 00:54:35;;;;;;;3.27;2.97;;;17.70;53.90;;;;;;5046252;28;20256;-56
2020/12/30 00:57:01;;;;;;;3.80;3.37;;;17.60;54.00;;;;;;5040816;28;20567;-57
2020/12/30 00:59:27;;;;;;;5.27;3.50;;;17.60;54.00;;;;;;5046162;28;20206;-55
2020/12/30 01:01:54;;;;;;;4.63;3.23;;;17.60;54.10;;;;;;5039059;28;20194;-56
2020/12/30 01:04:24;;;;;;;3.93;3.37;;;17.50;54.10;;;;;;5047826;28;20222;-57
2020/12/30 01:06:54;;;;;;;3.97;3.57;;;17.50;54.10;;;;;;5038353;28;20215;-57
2020/12/30 01:09:30;;;;;;;4.97;3.67;;;17.50;54.10;;;;;;5045874;28;20686;-57
2020/12/30 01:12:03;;;;;;;3.50;3.20;;;17.50;54.10;;;;;;5038693;28;20205;-56
2020/12/30 01:14:30;;;;;;;4.57;3.70;;;17.40;54.20;;;;;;5046387;28;20205;-57
2020/12/30 01:16:56;;;;;;;3.90;3.40;;;17.40;54.30;;;;;;5039635;28;20221;-58
2020/12/30 01:19:23;;;;;;;4.70;3.77;;;17.30;54.30;;;;;;5045686;28;20281;-57
2020/12/30 01:21:49;;;;;;;3.60;3.20;;;17.30;54.30;;;;;;5039038;28;20233;-57
2020/12/30 01:24:16;;;;;;;3.63;3.33;;;17.30;54.40;;;;;;5044076;28;20590;-58
2020/12/30 01:26:45;;;;;;;3.80;3.40;;;17.30;54.40;;;;;;5037639;28;20232;-58
2020/12/30 01:29:16;;;;;;;3.70;3.27;;;17.30;54.40;;;;;;5047223;28;20210;-57
2020/12/30 01:31:42;;;;;;;3.90;3.30;;;17.30;54.50;;;;;;5039078;28;20686;-57
2020/12/30 01:34:09;;;;;;;4.07;3.47;;;17.20;54.50;;;;;;5047459;28;20201;-57
2020/12/30 01:36:36;;;;;;;4.13;3.23;;;17.30;54.60;;;;;;5048050;28;20198;-57
2020/12/30 01:39:04;;;;;;;3.33;2.83;;;17.20;54.60;;;;;;5044608;28;20210;-55
2020/12/30 01:41:31;;;;;;;4.23;3.80;;;17.20;54.60;;;;;;5050809;28;20198;-57
2020/12/30 01:44:05;;;;;;;4.30;3.90;;;17.10;54.60;;;;;;5041770;28;20210;-57
2020/12/30 01:46:37;;;;;;;4.00;3.60;;;17.20;54.70;;;;;;5048849;28;20205;-57
2020/12/30 01:49:09;;;;;;;5.50;3.37;;;17.10;54.70;;;;;;5042263;28;20273;-56
2020/12/30 01:51:38;;;;;;;4.23;3.80;;;17.10;54.80;;;;;;5048334;28;20209;-56
2020/12/30 01:54:05;;;;;;;3.93;3.50;;;17.10;54.80;;;;;;5042608;28;20682;-56
2020/12/30 01:56:33;;;;;;;4.30;3.63;;;17.10;54.80;;;;;;5051086;28;20202;-58
2020/12/30 01:59:05;;;;;;;3.53;3.23;;;17.00;54.70;;;;;;5044204;28;20222;-57
2020/12/30 02:01:34;;;;;;;3.97;3.50;;;17.00;54.80;;;;;;5046075;28;20209;-57
2020/12/30 02:04:03;;;;;;;3.50;3.20;;;17.00;54.90;;;;;;5043855;28;20215;-57
2020/12/30 02:06:30;;;;;;;5.00;3.20;;;17.00;54.80;;;;;;5049537;28;20197;-57
2020/12/30 02:08:58;;;;;;;3.70;3.30;;;17.00;54.90;;;;;;5042423;28;20851;-57
2020/12/30 02:11:25;;;;;;;3.83;3.53;;;17.00;54.90;;;;;;5049925;28;20209;-56
2020/12/30 02:14:06;;;;;;;5.07;3.60;;;17.00;54.90;;;;;;5042608;28;20221;-57
2020/12/30 02:16:53;;;;;;;4.10;3.40;;;16.90;54.90;;;;;;5045461;28;20195;-55
2020/12/30 02:19:20;;;;;;;4.10;3.57;;;16.90;55.00;;;;;;5043835;28;20572;-57
2020/12/30 02:21:46;;;;;;;4.63;3.63;;;16.90;55.00;;;;;;5050126;28;20543;-56
2020/12/30 02:24:29;;;;;;;4.30;3.30;;;16.90;54.90;;;;;;5043238;28;20651;-58
2020/12/30 02:26:57;;;;;;;3.50;2.90;;;16.80;55.00;;;;;;5050144;28;20329;-55
2020/12/30 02:29:36;;;;;;;4.57;3.50;;;16.80;55.10;;;;;;5041947;28;20265;-57
2020/12/30 02:32:03;;;;;;;4.47;3.70;;;16.80;55.10;;;;;;5049205;28;20210;-57
2020/12/30 02:34:29;;;;;;;3.97;3.57;;;16.80;55.00;;;;;;5041960;28;20214;-57
2020/12/30 02:36:57;;;;;;;3.83;3.40;;;16.80;55.10;;;;;;5050086;28;20260;-57
2020/12/30 02:39:28;;;;;;;3.87;3.37;;;16.80;55.10;;;;;;5040628;28;20190;-57
2020/12/30 02:41:55;;;;;;;5.03;3.30;;;16.80;55.10;;;;;;5050314;28;20198;-57
2020/12/30 02:44:21;;;;;;;4.37;3.50;;;16.70;55.10;;;;;;5048352;28;20406;-57
2020/12/30 02:46:47;;;;;;;4.03;3.43;;;16.80;55.20;;;;;;5042122;28;20204;-57
2020/12/30 02:49:15;;;;;;;3.67;3.30;;;16.70;55.10;;;;;;5048865;28;20671;-56
2020/12/30 02:51:44;;;;;;;3.57;3.20;;;16.80;55.30;;;;;;5043273;28;20195;-57
2020/12/30 02:54:11;;;;;;;3.53;3.13;;;16.70;55.20;;;;;;5049320;28;20194;-57
2020/12/30 02:56:38;;;;;;;3.57;3.27;;;16.70;55.20;;;;;;5042444;28;20204;-56
2020/12/30 02:59:04;;;;;;;3.90;3.30;;;16.70;55.30;;;;;;5049050;28;20655;-56
2020/12/30 03:01:30;;;;;;;4.03;3.17;;;16.70;55.30;;;;;;5039656;28;20202;-57
2020/12/30 03:03:56;;;;;;;3.83;3.40;;;16.70;55.30;;;;;;5049155;28;20203;-57
2020/12/30 03:06:24;;;;;;;3.37;3.07;;;16.70;55.30;;;;;;5041336;28;20232;-56
2020/12/30 03:08:51;;;;;;;3.87;3.00;;;16.60;55.30;;;;;;5049367;28;20242;-57
2020/12/30 03:11:17;;;;;;;5.03;3.23;;;16.70;55.30;;;;;;5043027;28;20206;-56
2020/12/30 03:13:44;;;;;;;4.93;3.77;;;16.70;55.40;;;;;;5049885;28;20721;-56
2020/12/30 03:16:10;;;;;;;3.43;3.13;;;16.60;55.40;;;;;;5042072;28;20199;-57
2020/12/30 03:18:37;;;;;;;3.87;3.30;;;16.60;55.40;;;;;;5049243;28;20210;-56
2020/12/30 03:21:03;;;;;;;4.50;3.40;;;16.60;55.40;;;;;;5044168;28;20843;-56
2020/12/30 03:23:29;;;;;;;3.97;3.30;;;16.60;55.40;;;;;;5046896;28;20210;-57
2020/12/30 03:25:56;;;;;;;4.53;3.43;;;16.60;55.40;;;;;;5048610;28;20199;-56
2020/12/30 03:28:22;;;;;;;4.37;3.53;;;16.60;55.40;;;;;;5040595;28;20238;-56
2020/12/30 03:30:48;;;;;;;3.53;3.13;;;16.60;55.50;;;;;;5049356;28;20195;-57
2020/12/30 03:33:14;;;;;;;3.87;3.47;;;16.50;55.40;;;;;;5037680;28;20211;-57
2020/12/30 03:35:40;;;;;;;3.37;3.03;;;16.50;55.50;;;;;;5049271;28;20198;-56
2020/12/30 03:38:07;;;;;;;3.60;3.30;;;16.50;55.50;;;;;;5039962;28;20206;-57
2020/12/30 03:40:33;;;;;;;4.10;3.30;;;16.50;55.40;;;;;;5047304;28;20206;-56
2020/12/30 03:42:59;;;;;;;3.67;3.00;;;16.50;55.50;;;;;;5042367;28;20202;-56
2020/12/30 03:45:27;;;;;;;4.07;3.40;;;16.50;55.50;;;;;;5048341;28;20237;-57
2020/12/30 03:48:03;;;;;;;3.70;3.40;;;16.50;55.50;;;;;;5042927;28;20233;-57
2020/12/30 03:50:29;;;;;;;3.37;3.00;;;16.50;55.60;;;;;;5048724;28;20198;-56
2020/12/30 03:52:56;;;;;;;3.17;2.87;;;16.50;55.50;;;;;;5039783;28;20202;-57
2020/12/30 03:55:22;;;;;;;3.97;3.50;;;16.50;55.60;;;;;;5047020;28;20552;-56
2020/12/30 03:57:49;;;;;;;4.93;3.53;;;16.50;55.60;;;;;;5042538;28;20702;-57
2020/12/30 04:00:15;;;;;;;4.20;3.67;;;16.50;55.70;;;;;;5047033;28;20687;-57
2020/12/30 04:02:41;;;;;;;5.33;4.23;;;16.40;55.60;;;;;;5048144;28;20206;-56
2020/12/30 04:05:07;;;;;;;6.87;3.27;;;16.50;55.60;;;;;;5041206;28;20217;-57
2020/12/30 04:07:39;;;;;;;4.87;3.67;;;16.40;55.50;;;;;;5046701;28;20199;-56
2020/12/30 04:10:05;;;;;;;3.90;3.13;;;16.40;55.60;;;;;;5039457;28;20229;-57
2020/12/30 04:12:31;;;;;;;4.20;3.60;;;16.40;55.60;;;;;;5050064;28;20194;-57
2020/12/30 04:14:58;;;;;;;4.37;3.40;;;16.40;55.60;;;;;;5039068;28;20191;-57
2020/12/30 04:17:25;;;;;;;5.40;3.70;;;16.40;55.60;;;;;;5043242;28;20202;-57
2020/12/30 04:19:51;;;;;;;4.10;3.40;;;16.40;55.70;;;;;;5039144;28;20435;-57
2020/12/30 04:22:18;;;;;;;3.97;3.50;;;16.40;55.70;;;;;;5048153;28;20209;-57
2020/12/30 04:24:44;;;;;;;4.17;3.10;;;16.40;55.70;;;;;;5041368;28;20197;-57
2020/12/30 04:27:10;;;;;;;4.57;3.23;;;16.40;55.60;;;;;;5048060;28;20233;-57
2020/12/30 04:29:41;;;;;;;3.33;3.00;;;16.40;55.60;;;;;;5040604;28;20210;-57
2020/12/30 04:32:08;;;;;;;4.53;3.63;;;16.40;55.70;;;;;;5044851;28;20183;-57
2020/12/30 04:34:34;;;;;;;4.77;3.70;;;16.40;55.70;;;;;;5041506;28;20194;-57
2020/12/30 04:37:00;;;;;;;4.93;3.50;;;16.40;55.70;;;;;;5030652;28;20288;-56
2020/12/30 04:39:26;;;;;;;5.03;3.67;;;16.30;55.60;;;;;;5040368;28;20206;-56
2020/12/30 04:41:56;;;;;;;3.50;3.10;;;16.40;55.70;;;;;;5048244;28;20202;-57
2020/12/30 04:44:27;;;;;;;3.80;3.50;;;16.30;55.70;;;;;;5046878;28;20579;-57
2020/12/30 04:46:56;;;;;;;4.87;3.67;;;16.30;55.80;;;;;;5044269;28;20194;-56
2020/12/30 04:49:22;;;;;;;5.17;3.27;;;16.30;55.70;;;;;;5046912;28;20226;-57
2020/12/30 04:51:49;;;;;;;3.80;3.40;;;16.40;55.80;;;;;;5035843;28;20206;-56
2020/12/30 04:54:15;;;;;;;4.27;3.67;;;16.30;55.70;;;;;;5047416;28;20202;-57
2020/12/30 04:57:01;;;;;;;4.30;3.57;;;16.30;55.70;;;;;;5039953;28;20195;-57
2020/12/30 04:59:33;;;;;;;4.30;3.50;;;16.30;55.70;;;;;;5047149;28;20214;-57
2020/12/30 05:02:02;;;;;;;4.03;3.63;;;16.30;55.70;;;;;;5036469;28;20218;-57
2020/12/30 05:04:39;;;;;;;3.97;3.57;;;16.30;55.70;;;;;;5046133;28;20202;-57
2020/12/30 05:07:11;;;;;;;3.93;3.33;;;16.30;55.70;;;;;;5023094;28;20205;-57
2020/12/30 05:09:46;;;;;;;3.77;2.97;;;16.30;55.60;;;;;;5048740;28;20225;-57
2020/12/30 05:12:17;;;;;;;4.13;3.73;;;16.30;55.70;;;;;;5043182;28;20201;-57
2020/12/30 05:14:44;;;;;;;3.63;3.27;;;16.30;55.70;;;;;;5051786;28;20206;-57
2020/12/30 05:17:12;;;;;;;3.70;3.40;;;16.30;55.80;;;;;;5046577;28;20202;-57
2020/12/30 05:19:44;;;;;;;3.97;3.57;;;16.30;55.90;;;;;;5047128;28;20213;-57
2020/12/30 05:22:18;;;;;;;4.07;3.47;;;16.30;55.90;;;;;;5043747;28;20284;-57
2020/12/30 05:24:46;;;;;;;4.40;3.13;;;16.30;55.90;;;;;;5050615;28;20261;-56
2020/12/30 05:27:13;;;;;;;3.87;3.40;;;16.30;55.90;;;;;;5041462;28;20237;-57
2020/12/30 05:29:51;;;;;;;3.80;3.43;;;16.30;55.90;;;;;;5030875;28;20218;-57
2020/12/30 05:32:18;;;;;;;3.80;3.40;;;16.30;55.90;;;;;;5043195;28;20268;-57
2020/12/30 05:34:46;;;;;;;4.00;3.13;;;16.30;55.90;;;;;;5049221;28;20824;-56
2020/12/30 05:37:14;;;;;;;4.03;3.40;;;16.30;56.00;;;;;;5042447;28;20195;-56
2020/12/30 05:39:41;;;;;;;3.87;3.17;;;16.30;56.00;;;;;;5050338;28;20643;-57
2020/12/30 05:42:15;;;;;;;3.57;3.10;;;16.30;56.00;;;;;;5043921;28;20944;-57
2020/12/30 05:44:42;;;;;;;3.90;3.13;;;16.30;55.90;;;;;;5050040;28;21619;-55
2020/12/30 05:47:12;;;;;;;3.77;3.10;;;16.30;56.00;;;;;;5041173;28;20202;-57
2020/12/30 05:49:38;;;;;;;3.90;3.50;;;16.30;55.90;;;;;;5049656;28;20222;-57
2020/12/30 05:52:21;;;;;;;3.80;3.10;;;16.30;56.00;;;;;;5033399;28;20736;-57
2020/12/30 05:55:00;;;;;;;6.10;3.13;;;16.30;55.90;;;;;;5049317;28;20195;-57
2020/12/30 05:57:27;;;;;;;3.67;3.30;;;16.30;56.00;;;;;;5046243;28;20190;-55
2020/12/30 05:59:58;;;;;;;4.07;3.40;;;16.30;56.10;;;;;;5046091;28;20202;-57
2020/12/30 06:02:30;;;;;;;3.43;3.13;;;16.20;55.90;;;;;;5050937;28;20198;-55
2020/12/30 06:05:18;;;;;;;3.67;3.00;;;16.20;56.50;;;;;;5041569;28;20203;-57
2020/12/30 06:08:02;;;;;;;3.03;2.67;;;16.30;56.10;;;;;;5050230;28;20191;-57
2020/12/30 06:10:28;;;;;;;4.00;3.57;;;16.20;56.00;;;;;;5048514;28;20198;-57
2020/12/30 06:12:59;;;;;;;4.87;3.27;;;16.20;55.90;;;;;;5048402;28;20201;-57
2020/12/30 06:15:28;;;;;;;4.17;3.17;;;16.20;55.90;;;;;;5042598;28;20669;-57
2020/12/30 06:18:00;;;;;;;3.60;3.20;;;16.20;56.00;;;;;;5047210;28;20195;-55
2020/12/30 06:20:37;;;;;;;4.20;3.07;;;16.20;55.90;;;;;;5043207;28;20882;-57
2020/12/30 06:23:04;;;;;;;3.50;3.07;;;16.30;56.60;;;;;;5049601;28;20660;-57
2020/12/30 06:25:33;;;;;;;3.77;3.20;;;16.20;55.90;;;;;;5041646;28;20202;-56
2020/12/30 06:28:08;;;;;;;3.73;3.37;;;16.20;55.90;;;;;;5042180;28;20586;-57
2020/12/30 06:30:36;;;;;;;4.93;3.50;;;16.20;56.10;;;;;;5041763;28;20198;-57
2020/12/30 06:33:03;;;;;;;3.60;2.90;;;16.20;56.00;;;;;;5047545;28;20198;-55
2020/12/30 06:35:31;;;;;;;3.70;3.27;;;16.20;56.00;;;;;;5040215;28;20210;-57
2020/12/30 06:37:58;;;;;;;3.97;3.30;;;16.20;55.90;;;;;;5050147;28;20191;-57
2020/12/30 06:40:31;;;;;;;3.77;3.00;;;16.20;56.00;;;;;;5041717;28;20205;-57
2020/12/30 06:43:00;;;;;;;3.50;3.00;;;16.20;56.00;;;;;;5049791;28;20190;-57
2020/12/30 06:45:48;;;;;;;4.03;2.87;;;16.20;55.90;;;;;;5042061;28;20229;-55
2020/12/30 06:48:15;;;;;;;4.00;3.10;;;16.20;56.00;;;;;;5046977;28;20206;-56
2020/12/30 06:50:41;;;;;;;4.27;3.33;;;16.20;55.90;;;;;;5039138;28;20206;-56
2020/12/30 06:53:30;;;;;;;3.10;2.80;;;16.20;56.00;;;;;;5032879;28;20202;-57
2020/12/30 06:55:58;;;;;;;3.10;2.80;;;16.20;55.90;;;;;;5040414;28;20210;-57
2020/12/30 06:58:45;;;;;;;3.80;3.10;;;16.20;55.90;;;;;;5049521;28;20210;-57
2020/12/30 07:01:13;;;;;;;4.10;3.27;;;16.20;55.90;;;;;;5040704;28;20256;-57
2020/12/30 07:03:41;;;;;;;4.90;3.27;;;16.20;55.90;;;;;;5048572;28;20218;-57
2020/12/30 07:06:22;;;;;;;4.50;3.30;;;16.20;55.90;;;;;;5038755;28;20214;-57
2020/12/30 07:08:49;;;;;;;4.27;2.87;;;16.20;55.90;;;;;;5049110;28;20589;-57
2020/12/30 07:11:42;;;;;;;3.07;2.80;;;16.20;56.50;;;;;;5040830;28;20194;-55
2020/12/30 07:14:13;;;;;;;4.57;3.50;;;16.20;55.90;;;;;;5037190;28;20225;-58
2020/12/30 07:16:43;;;;;;;3.77;3.20;;;16.20;56.00;;;;;;5039674;28;20210;-57
2020/12/30 07:19:22;;;;;;;3.40;3.10;;;16.20;55.90;;;;;;5048451;28;20553;-57
2020/12/30 07:21:58;;;;;;;4.00;3.00;;;16.20;56.50;;;;;;5039889;28;20268;-56
2020/12/30 07:24:28;;;;;;;3.87;3.10;;;16.20;55.90;;;;;;5045578;28;20202;-56
2020/12/30 07:26:59;;;;;;;3.10;2.80;;;16.20;55.90;;;;;;5040883;28;20208;-57
2020/12/30 07:29:26;;;;;;;3.33;3.03;;;16.10;55.80;;;;;;5048733;28;20222;-57
2020/12/30 07:31:58;;;;;;;3.73;3.07;;;16.20;55.90;;;;;;5046161;28;20211;-56
2020/12/30 07:34:27;;;;;;;4.53;3.10;;;16.20;55.90;;;;;;5045211;28;20202;-56
2020/12/30 07:36:54;;;;;;;3.40;3.10;;;16.10;55.80;;;;;;5045607;28;23172;-57
2020/12/30 07:39:29;;;;;;;3.70;3.10;;;16.20;55.90;;;;;;5047161;28;20217;-56
2020/12/30 07:41:56;;;;;;;4.27;3.23;;;16.20;55.90;;;;;;5047385;28;20202;-56
2020/12/30 07:44:23;;;;;;;3.87;3.00;;;16.20;55.90;;;;;;5047049;28;20198;-56
2020/12/30 07:46:49;;;;;;;5.90;3.47;;;16.20;55.90;;;;;;5050173;28;20216;-56
2020/12/30 07:49:20;;;;;;;3.60;3.17;;;16.10;55.80;;;;;;5038352;28;20309;-57
2020/12/30 07:51:49;;;;;;;3.30;3.00;;;16.10;55.80;;;;;;5046312;28;20221;-59
2020/12/30 07:54:16;;;;;;;4.80;3.20;;;16.10;55.80;;;;;;5036788;28;20190;-58
2020/12/30 07:56:43;;;;;;;4.40;3.70;;;16.10;55.80;;;;;;5044576;28;20199;-58
2020/12/30 07:59:10;;;;;;;4.43;3.47;;;16.10;55.80;;;;;;5040850;28;20210;-58
2020/12/30 08:01:36;;;;;;;3.77;3.20;;;16.10;55.80;;;;;;5047282;28;21471;-58
2020/12/30 08:04:09;;;;;;;3.97;3.07;;;16.10;55.70;;;;;;5038614;28;20210;-58
2020/12/30 08:06:46;;;;;;;6.10;3.17;;;16.10;55.70;;;;;;5045528;28;20206;-58
2020/12/30 08:09:13;;;;;;;3.40;3.10;;;16.10;55.70;;;;;;5036326;28;20896;-58
2020/12/30 08:11:50;;;;;;;3.23;2.90;;;16.10;55.70;;;;;;5047320;28;20217;-56
2020/12/30 08:14:17;;;;;;;4.43;3.30;;;16.10;55.60;;;;;;5035328;28;20206;-56
2020/12/30 08:16:54;;;;;;;3.97;3.53;;;16.10;55.60;;;;;;5044119;28;20205;-56
2020/12/30 08:19:31;;;;;;;6.13;3.40;;;16.10;55.60;;;;;;5034631;28;20198;-56
2020/12/30 08:22:01;;;;;;;4.63;3.70;;;16.10;55.70;;;;;;5045905;28;20197;-56
2020/12/30 08:24:29;;;;;;;4.03;3.27;;;16.10;55.70;;;;;;5039558;28;20213;-55
2020/12/30 08:26:55;;;;;;;4.17;3.70;;;16.10;55.70;;;;;;5040133;28;20875;-58
2020/12/30 08:29:22;;;;;;;3.83;3.30;;;16.10;55.80;;;;;;5038442;28;20241;-59
2020/12/30 08:31:56;;;;;;;4.27;3.37;;;16.10;55.80;;;;;;5046006;28;20194;-59
2020/12/30 08:34:27;;;;;;;5.30;3.87;;;16.10;55.70;;;;;;5035991;28;20206;-58
2020/12/30 08:37:04;;;;;;;3.83;3.40;;;16.10;55.80;;;;;;5045489;28;20280;-56
2020/12/30 08:39:33;;;;;;;5.30;3.47;;;16.10;55.80;;;;;;5037793;28;20218;-59
2020/12/30 08:42:04;;;;;;;6.90;3.53;;;16.10;55.90;;;;;;5047715;28;20209;-58
2020/12/30 08:44:37;;;;;;;5.83;3.13;;;16.10;55.80;;;;;;5041566;28;20209;-57
2020/12/30 08:47:06;;;;;;;3.67;3.13;;;16.10;55.90;;;;;;5050669;28;20210;-59
2020/12/30 08:49:34;;;;;;;5.23;3.20;;;16.10;55.90;;;;;;5050698;28;20263;-59
2020/12/30 08:52:16;;;;;;;6.50;3.70;;;16.10;55.80;;;;;;5046202;28;20186;-55
2020/12/30 08:54:43;;;;;;;4.53;3.27;;;16.10;55.80;;;;;;5048394;28;20191;-57
2020/12/30 08:57:09;;;;;;;5.47;3.43;;;16.10;55.80;;;;;;5041391;28;20201;-55
2020/12/30 08:59:35;;;;;;;14.13;4.07;;;16.10;55.80;;;;;;5049316;28;20186;-55
2020/12/30 09:02:12;;;;;;;6.30;3.80;;;16.00;55.80;;;;;;5040852;28;20207;-57
2020/12/30 09:04:52;;;;;;;5.47;3.50;;;16.10;55.90;;;;;;5049246;28;20301;-56
2020/12/30 09:07:25;;;;;;;6.60;3.67;;;16.10;55.90;;;;;;5040801;28;20214;-56
2020/12/30 09:10:09;;;;;;;7.93;3.90;;;16.10;55.80;;;;;;5043470;28;20228;-55
2020/12/30 09:12:37;;;;;;;5.37;3.63;;;16.10;55.70;;;;;;5040628;28;20201;-55
2020/12/30 09:15:05;;;;;;;6.03;3.60;;;16.10;55.70;;;;;;5048324;28;20197;-56
2020/12/30 09:17:34;;;;;;;4.50;3.50;;;16.10;55.60;;;;;;5040562;28;20205;-56
2020/12/30 09:20:14;;;;;;;5.20;3.40;;;16.10;55.50;;;;;;5046792;28;20214;-57
2020/12/30 09:22:41;;;;;;;5.07;3.80;;;16.10;55.50;;;;;;5026663;28;20206;-58
2020/12/30 09:25:23;;;;;;;5.00;3.63;;;16.10;55.50;;;;;;5033858;28;20643;-57
2020/12/30 09:27:50;;;;;;;5.17;3.47;;;16.10;55.40;;;;;;5040562;28;20233;-57
2020/12/30 09:30:23;;;;;;;4.90;3.57;;;16.10;55.40;;;;;;5048546;28;20730;-58
2020/12/30 09:32:50;;;;;;;5.93;3.40;;;16.10;55.30;;;;;;5037349;28;20206;-57
2020/12/30 09:35:18;;;;;;;7.80;3.20;;;16.00;55.30;;;;;;5047775;28;20674;-61
2020/12/30 09:37:55;;;;;;;3.27;2.97;;;16.10;55.80;;;;;;5041479;28;20217;-61
2020/12/30 09:40:22;;;;;;;3.83;2.53;;;17.00;54.20;;;;;;5050618;28;20194;-61
2020/12/30 09:42:49;;;;;;;2.70;2.43;;;17.70;52.60;;;;;;5041673;28;20673;-61
2020/12/30 09:45:18;;;;;;;3.50;2.93;;;18.20;51.90;;;;;;5046762;28;20210;-59
2020/12/30 09:47:45;;;;;;;4.10;2.73;;;18.30;51.10;;;;;;5038166;28;20274;-60
2020/12/30 09:50:15;;;;;;;5.23;3.07;;;18.30;51.20;;;;;;5048518;28;20226;-60
2020/12/30 09:52:43;;;;;;;4.80;3.03;;;18.40;51.10;;;;;;5041111;28;20670;-61
2020/12/30 09:55:11;;;;;;;3.73;2.70;;;18.50;50.90;;;;;;5046507;28;20693;-60
2020/12/30 09:57:38;;;;;;;4.17;3.33;;;18.60;50.60;;;;;;5039641;28;20453;-60
2020/12/30 10:00:08;;;;;;;10.03;3.27;;;18.70;50.30;;;;;;5044511;28;20682;-59
2020/12/30 10:02:34;;;;;;;8.90;2.90;;;18.90;50.30;;;;;;5040411;28;20211;-61
2020/12/30 10:05:01;;;;;;;13.93;3.67;;;19.00;50.20;;;;;;5034662;28;20201;-60
2020/12/30 10:07:27;;;;;;;10.87;3.87;;;19.10;50.00;;;;;;5039159;28;20195;-58
2020/12/30 10:09:54;;;;;;;10.73;3.87;;;19.20;50.10;;;;;;5038719;28;20221;-60
2020/12/30 10:12:23;;;;;;;8.40;3.20;;;19.30;49.80;;;;;;5047882;28;20187;-59
2020/12/30 10:14:49;;;;;;;9.03;3.23;;;19.40;49.90;;;;;;5036400;28;20269;-60
2020/12/30 10:17:16;;;;;;;8.07;2.93;;;19.40;49.50;;;;;;5043035;28;20757;-60
2020/12/30 10:19:42;;;;;;;7.43;2.70;;;19.50;49.20;;;;;;5018253;28;20233;-60
2020/12/30 10:22:10;;;;;;;4.87;2.80;;;19.70;49.20;;;;;;5046006;28;20528;-61
2020/12/30 10:24:44;;;;;;;5.87;3.10;;;19.70;49.20;;;;;;5040905;28;20199;-61
2020/12/30 10:27:12;;;;;;;9.27;2.77;;;19.80;49.00;;;;;;5047314;28;20199;-62
2020/12/30 10:29:38;;;;;;;5.97;3.10;;;20.00;48.80;;;;;;5042864;28;20241;-59
2020/12/30 10:32:05;;;;;;;13.70;3.23;;;20.00;48.60;;;;;;5046763;28;20218;-60
2020/12/30 10:34:32;;;;;;;3.97;2.40;;;20.10;48.40;;;;;;5041367;28;20201;-60
2020/12/30 10:36:59;;;;;;;3.33;2.53;;;20.10;48.30;;;;;;5046371;28;20684;-60
2020/12/30 10:39:25;;;;;;;4.23;2.50;;;20.10;48.20;;;;;;5043337;28;20198;-59
2020/12/30 10:41:59;;;;;;;4.03;2.53;;;20.20;48.10;;;;;;5046710;28;20218;-59
2020/12/30 10:44:26;;;;;;;4.70;2.57;;;20.30;47.80;;;;;;5041475;28;20202;-58
2020/12/30 10:46:53;;;;;;;3.67;2.53;;;20.40;47.70;;;;;;5027721;28;20216;-59
2020/12/30 10:49:20;;;;;;;4.77;2.60;;;20.40;47.60;;;;;;5046628;28;20214;-60
2020/12/30 10:51:48;;;;;;;5.10;2.30;;;20.40;47.40;;;;;;5038843;28;20642;-60
2020/12/30 10:54:18;;;;;;;5.60;2.70;;;20.50;47.30;;;;;;5045401;28;20206;-60
2020/12/30 10:56:52;;;;;;;4.03;2.20;;;20.60;47.20;;;;;;5039606;28;20205;-59
2020/12/30 10:59:21;;;;;;;4.07;2.33;;;20.60;47.40;;;;;;5042279;28;20190;-58
2020/12/30 11:01:52;;;;;;;3.50;2.40;;;20.70;47.20;;;;;;5005393;28;20297;-59
2020/12/30 11:04:20;;;;;;;4.30;2.60;;;20.80;47.20;;;;;;5047112;28;20688;-59
2020/12/30 11:06:47;;;;;;;2.93;2.50;;;20.90;47.00;;;;;;5038011;28;20580;-56
2020/12/30 11:09:13;;;;;;;6.03;2.70;;;20.90;46.90;;;;;;5048078;28;20225;-56
2020/12/30 11:11:43;;;;;;;3.63;2.40;;;21.00;47.40;;;;;;5038128;28;20201;-54
2020/12/30 11:14:11;;;;;;;5.20;2.13;;;21.10;47.20;;;;;;5046627;28;20229;-56
2020/12/30 11:16:37;;;;;;;3.27;2.30;;;21.10;47.10;;;;;;5040996;28;20213;-55
2020/12/30 11:19:04;;;;;;;3.03;2.30;;;21.10;46.80;;;;;;5047800;28;20665;-57
2020/12/30 11:21:30;;;;;;;5.13;2.37;;;21.20;46.70;;;;;;5038946;28;20237;-56
2020/12/30 11:23:56;;;;;;;5.03;2.60;;;21.20;46.50;;;;;;5046111;28;20199;-55
2020/12/30 11:26:22;;;;;;;4.47;3.30;;;21.30;46.50;;;;;;5039986;28;20218;-56
2020/12/30 11:28:49;;;;;;;4.97;3.30;;;21.20;46.40;;;;;;5047409;28;20237;-56
2020/12/30 11:31:15;;;;;;;14.83;3.10;;;21.20;46.30;;;;;;5048813;28;20204;-58
2020/12/30 11:33:41;;;;;;;5.97;2.80;;;21.60;47.60;;;;;;5038727;28;20189;-61
2020/12/30 11:36:08;;;;;;;9.73;2.60;;;22.00;47.10;;;;;;5044649;28;20202;-58
2020/12/30 11:38:35;;;;;;;3.80;2.80;;;22.30;47.10;;;;;;5035693;28;20237;-60
2020/12/30 11:41:01;;;;;;;10.13;2.70;;;22.50;46.50;;;;;;5046174;28;20194;-61
2020/12/30 11:43:28;;;;;;;6.27;2.77;;;22.60;46.40;;;;;;5039616;28;20206;-61
2020/12/30 11:45:55;;;;;;;3.73;2.37;;;22.70;46.30;;;;;;5046750;28;20200;-59
2020/12/30 11:48:22;;;;;;;3.33;2.40;;;23.20;45.60;;;;;;5020857;28;20212;-57
2020/12/30 11:50:48;;;;;;;6.30;2.57;;;23.50;44.70;;;;;;5045880;28;20560;-58
2020/12/30 11:53:14;;;;;;;3.10;2.63;;;23.80;44.20;;;;;;5037536;28;20207;-59
2020/12/30 11:55:41;;;;;;;3.47;2.40;;;23.30;44.70;;;;;;5046476;28;20218;-59
2020/12/30 11:58:07;;;;;;;9.00;2.80;;;22.70;46.40;;;;;;5039570;28;20248;-57
2020/12/30 12:00:33;;;;;;;5.83;2.63;;;22.20;47.10;;;;;;5044183;28;20713;-59
2020/12/30 12:03:00;;;;;;;3.27;2.20;;;21.90;48.50;;;;;;5034602;28;20211;-59
2020/12/30 12:05:26;;;;;;;4.73;2.73;;;21.70;49.10;;;;;;5043451;28;20686;-62
2020/12/30 12:07:52;;;;;;;3.83;2.63;;;21.60;49.60;;;;;;5040856;28;20221;-59
2020/12/30 12:10:19;;;;;;;3.73;2.40;;;21.60;49.70;;;;;;5043422;28;20214;-60
2020/12/30 12:12:45;;;;;;;4.60;2.60;;;21.50;49.60;;;;;;5030057;28;20195;-59
2020/12/30 12:15:11;;;;;;;4.10;2.47;;;21.40;49.70;;;;;;5037259;28;20271;-59
2020/12/30 12:17:37;;;;;;;9.07;2.40;;;21.40;49.60;;;;;;5042919;28;20628;-59
2020/12/30 12:20:04;;;;;;;5.97;2.40;;;21.40;49.80;;;;;;5037792;28;20225;-61
2020/12/30 12:22:31;;;;;;;6.27;2.80;;;21.30;50.00;;;;;;5043606;28;20210;-61
2020/12/30 12:24:57;;;;;;;5.47;3.00;;;21.20;50.30;;;;;;5036339;28;20210;-57
2020/12/30 12:27:23;;;;;;;3.13;2.40;;;20.70;49.90;;;;;;5041350;28;20217;-56
2020/12/30 12:29:51;;;;;;;4.57;2.90;;;20.50;51.40;;;;;;5037086;28;20233;-57
2020/12/30 12:32:19;;;;;;;6.97;3.03;;;20.20;52.10;;;;;;5042740;28;20209;-57
2020/12/30 12:34:48;;;;;;;3.17;2.33;;;20.10;52.60;;;;;;5035752;28;20202;-57
2020/12/30 12:37:15;;;;;;;3.90;2.40;;;19.90;52.80;;;;;;5046960;28;20206;-56
2020/12/30 12:39:43;;;;;;;3.73;2.63;;;19.90;53.20;;;;;;5036396;28;20550;-56
2020/12/30 12:42:10;;;;;;;5.40;3.10;;;19.80;53.50;;;;;;5046453;28;20202;-56
2020/12/30 12:44:38;;;;;;;3.10;2.70;;;19.70;53.60;;;;;;5037287;28;20202;-56
2020/12/30 12:47:04;;;;;;;3.53;2.93;;;19.60;54.00;;;;;;5046061;28;20681;-56
2020/12/30 12:49:31;;;;;;;4.63;3.10;;;19.60;54.20;;;;;;5045790;28;20220;-55
2020/12/30 12:51:58;;;;;;;3.30;2.70;;;19.60;54.40;;;;;;5035106;28;20232;-55
2020/12/30 12:54:31;;;;;;;7.43;2.77;;;19.50;54.40;;;;;;5046144;28;20252;-55